Time;durP1;ratioP1;P1;durP2;ratioP2;P2;SDS_P1;SDS_P2;PMS_P1;PMS_P2;Temp;Humidity;BMP_temperature;BMP_pressure;BME280_temperature;BME280_humidity;BME280_pressure;Samples;Min_cycle;Max_cycle;Signal;HPM_P1;HPM_P2
2021/07/22 00:01:59;206245.00;0.69;356.67;65301.00;0.22;113.64;;;;;22.40;1.00;;;;;;2573988;55;1242;-89
2021/07/22 00:04:26;256147.00;0.85;442.52;68281.00;0.23;118.79;;;;;22.60;1.00;;;;;;2575592;56;1078;-88
2021/07/22 00:06:53;195775.00;0.65;338.65;60186.00;0.20;104.80;;;;;22.80;1.00;;;;;;2577918;55;1575;-89
2021/07/22 00:09:21;230747.00;0.77;398.83;67714.00;0.23;117.81;;;;;23.00;1.00;;;;;;2576086;55;1116;-88
2021/07/22 00:11:48;186691.00;0.62;323.01;66366.00;0.22;115.48;;;;;23.00;1.00;;;;;;2575615;56;1975;-88
2021/07/22 00:14:15;178688.00;0.60;309.23;49199.00;0.16;85.80;;;;;22.90;1.00;;;;;;2575790;55;1068;-88
2021/07/22 00:16:42;178466.00;0.59;308.85;63307.00;0.21;110.19;;;;;22.80;1.00;;;;;;2575600;55;1139;-88
2021/07/22 00:19:09;203446.00;0.68;351.86;70133.00;0.23;121.99;;;;;22.40;1.00;;;;;;2576103;56;1061;-88
2021/07/22 00:21:36;277451.00;0.92;479.15;70561.00;0.24;122.73;;;;;22.60;1.00;;;;;;2575932;55;1223;-88
2021/07/22 00:24:03;246535.00;0.82;425.99;64374.00;0.21;112.04;;;;;22.60;1.00;;;;;;2575926;55;1099;-89
2021/07/22 00:26:32;241298.00;0.80;416.98;62036.00;0.21;108.00;;;;;22.50;1.00;;;;;;2576077;56;1244;-88
2021/07/22 00:28:59;174601.00;0.58;302.19;69259.00;0.23;120.48;;;;;22.60;1.00;;;;;;2575975;56;1094;-88
2021/07/22 00:31:25;286648.00;0.96;494.97;67162.00;0.22;116.86;;;;;22.80;1.00;;;;;;2576201;55;1277;-88
2021/07/22 00:33:52;482692.00;1.61;832.03;137652.00;0.46;238.52;;;;;22.90;1.00;;;;;;2578191;55;1964;-88
2021/07/22 00:36:19;309030.00;1.03;533.44;65790.00;0.22;114.48;;;;;23.00;1.00;;;;;;2575521;56;1129;-89
2021/07/22 00:38:49;306642.00;1.02;529.34;68108.00;0.23;118.49;;;;;23.10;1.00;;;;;;2575837;55;1171;-88
2021/07/22 00:41:16;280543.00;0.94;484.47;81679.00;0.27;141.94;;;;;23.10;1.00;;;;;;2575875;55;1338;-89
2021/07/22 00:43:44;219174.00;0.73;378.92;71635.00;0.24;124.59;;;;;22.80;1.00;;;;;;2575477;56;1130;-88
2021/07/22 00:46:11;200763.00;0.67;347.24;66257.00;0.22;115.29;;;;;23.00;1.00;;;;;;2575779;56;1169;-88
2021/07/22 00:48:38;177167.00;0.59;306.61;69010.00;0.23;120.05;;;;;22.90;1.00;;;;;;2578228;55;1134;-88
2021/07/22 00:51:06;510105.00;1.70;879.22;81800.00;0.27;142.15;;;;;22.70;1.00;;;;;;2575800;55;1285;-88
2021/07/22 00:53:34;248651.00;0.83;429.63;71579.00;0.24;124.49;;;;;22.10;1.00;;;;;;2575887;56;1945;-88
2021/07/22 00:56:01;269938.00;0.90;466.24;67996.00;0.23;118.30;;;;;22.00;1.00;;;;;;2575766;55;1102;-88
2021/07/22 00:58:28;186050.00;0.62;321.91;75483.00;0.25;131.23;;;;;21.90;1.00;;;;;;2575862;56;1060;-89
2021/07/22 01:00:56;217217.00;0.72;375.55;72478.00;0.24;126.04;;;;;21.80;1.00;;;;;;2575739;55;1355;-89
2021/07/22 01:03:23;291626.00;0.97;503.52;70952.00;0.24;123.41;;;;;22.20;1.00;;;;;;2576053;56;1127;-89
2021/07/22 01:05:50;219052.00;0.73;378.71;68781.00;0.23;119.65;;;;;22.40;1.00;;;;;;2575919;55;1147;-89
2021/07/22 01:08:17;188559.00;0.63;326.23;72930.00;0.24;126.82;;;;;22.50;1.00;;;;;;2575460;56;1094;-87
2021/07/22 01:10:44;304604.00;1.02;525.83;91392.00;0.30;158.71;;;;;22.20;1.00;;;;;;2574869;56;1262;-88
2021/07/22 01:13:11;212717.00;0.71;367.81;68531.00;0.23;119.22;;;;;22.40;1.00;;;;;;2575985;55;1954;-88
2021/07/22 01:15:38;332993.00;1.11;574.63;94917.00;0.32;164.80;;;;;22.60;1.00;;;;;;2575687;55;1084;-88
2021/07/22 01:18:06;256172.00;0.85;442.57;75892.00;0.25;131.94;;;;;22.70;1.00;;;;;;2575187;56;1155;-88
2021/07/22 01:20:34;166490.00;0.55;288.22;51538.00;0.17;89.85;;;;;22.80;1.00;;;;;;2575948;55;1257;-88
2021/07/22 01:23:01;479553.00;1.60;826.63;67834.00;0.23;118.02;;;;;22.70;1.00;;;;;;2576029;55;1119;-88
2021/07/22 01:25:29;256298.00;0.85;442.78;72722.00;0.24;126.46;;;;;22.30;1.00;;;;;;2577799;55;1093;-89
2021/07/22 01:27:58;222795.00;0.74;385.15;69239.00;0.23;120.45;;;;;22.20;1.00;;;;;;2575946;55;1097;-88
2021/07/22 01:30:26;324484.00;1.08;560.01;73949.00;0.25;128.58;;;;;22.30;1.00;;;;;;2576249;55;1328;-88
2021/07/22 01:32:53;195999.00;0.65;339.04;67212.00;0.22;116.94;;;;;22.50;1.00;;;;;;2575958;56;1925;-88
2021/07/22 01:35:20;278555.00;0.93;481.05;63862.00;0.21;111.15;;;;;22.60;1.00;;;;;;2577715;55;1686;-88
2021/07/22 01:37:50;196492.00;0.65;339.89;69649.00;0.23;121.15;;;;;22.20;1.00;;;;;;2575507;56;1080;-88
2021/07/22 01:40:18;377582.00;1.26;651.27;63538.00;0.21;110.59;;;;;22.30;1.00;;;;;;2577649;55;1274;-88
2021/07/22 01:42:45;436376.00;1.45;752.35;66295.00;0.22;115.36;;;;;22.30;1.00;;;;;;2575799;56;1149;-88
2021/07/22 01:45:13;423004.00;1.41;729.36;70626.00;0.24;122.84;;;;;22.50;1.00;;;;;;2578015;55;1659;-89
2021/07/22 01:47:41;339036.00;1.13;585.02;67275.00;0.22;117.05;;;;;22.50;1.00;;;;;;2575787;56;1187;-89
2021/07/22 01:50:09;391087.00;1.30;674.48;67064.00;0.22;116.69;;;;;22.30;1.00;;;;;;2575565;56;1249;-88
2021/07/22 01:52:36;382655.00;1.28;659.99;63873.00;0.21;111.17;;;;;22.40;1.00;;;;;;2577376;55;1972;-88
2021/07/22 01:55:06;314282.00;1.05;542.47;63863.00;0.21;111.15;;;;;22.20;1.00;;;;;;2577588;55;1153;-89
2021/07/22 01:57:33;289080.00;0.96;499.15;77658.00;0.26;134.99;;;;;22.30;1.00;;;;;;2575535;56;1232;-88
2021/07/22 02:00:04;273398.00;0.91;472.19;70104.00;0.23;121.94;;;;;22.20;1.00;;;;;;2575934;56;1318;-88
2021/07/22 02:02:32;301804.00;1.01;521.02;70277.00;0.23;122.24;;;;;22.30;1.00;;;;;;2575441;56;1090;-88
2021/07/22 02:04:59;349138.00;1.16;602.38;68346.00;0.23;118.90;;;;;22.30;1.00;;;;;;2576054;55;1126;-89
2021/07/22 02:07:26;364778.00;1.22;629.26;61661.00;0.21;107.35;;;;;22.50;1.00;;;;;;2578116;55;1121;-88
2021/07/22 02:09:53;411780.00;1.37;710.06;71230.00;0.24;123.89;;;;;22.40;1.00;;;;;;2578129;55;1485;-88
2021/07/22 02:12:22;346831.00;1.16;598.41;65811.00;0.22;114.52;;;;;22.20;1.00;;;;;;2576109;55;1952;-88
2021/07/22 02:14:51;282417.00;0.94;487.69;0.00;0.00;0.62;;;;;22.30;1.00;;;;;;2575921;56;1146;-89
2021/07/22 02:17:19;94370.00;0.31;163.85;0.00;0.00;0.62;;;;;22.40;1.00;;;;;;2575836;56;1139;-88
2021/07/22 02:19:46;175134.00;0.58;303.11;0.00;0.00;0.62;;;;;22.50;1.00;;;;;;2575773;56;1271;-88
2021/07/22 02:22:15;88292.00;0.29;153.36;0.00;0.00;0.62;;;;;22.70;1.00;;;;;;2575682;56;1131;-89
2021/07/22 02:24:42;194748.00;0.65;336.88;0.00;0.00;0.62;;;;;22.60;1.00;;;;;;2576115;55;1136;-89
2021/07/22 02:27:09;219648.00;0.73;379.74;0.00;0.00;0.62;;;;;22.50;1.00;;;;;;2576119;56;1090;-88
2021/07/22 02:29:37;378813.00;1.26;653.38;0.00;0.00;0.62;;;;;22.40;1.00;;;;;;2575995;56;1074;-89
2021/07/22 02:32:05;232976.00;0.78;402.67;0.00;0.00;0.62;;;;;22.20;1.00;;;;;;2575918;55;1311;-88
2021/07/22 02:34:32;359888.00;1.20;620.86;37245.00;0.12;65.12;;;;;22.10;1.00;;;;;;2578009;55;1966;-88
2021/07/22 02:36:59;299097.00;1.00;516.37;0.00;0.00;0.62;;;;;21.80;1.00;;;;;;2576153;55;1107;-89
2021/07/22 02:39:26;312558.00;1.04;539.51;0.00;0.00;0.62;;;;;21.70;1.00;;;;;;2578627;55;1124;-88
2021/07/22 02:41:53;257373.00;0.86;444.63;0.00;0.00;0.62;;;;;21.80;1.00;;;;;;2576436;55;1323;-88
2021/07/22 02:44:20;215039.00;0.72;371.81;0.00;0.00;0.62;;;;;22.10;1.00;;;;;;2576464;55;1063;-89
2021/07/22 02:46:48;228415.00;0.76;394.82;0.00;0.00;0.62;;;;;22.30;1.00;;;;;;2576427;55;1116;-90
2021/07/22 02:49:15;338594.00;1.13;584.26;0.00;0.00;0.62;;;;;22.30;1.00;;;;;;2578676;55;1005;-89
2021/07/22 02:51:42;464055.00;1.55;799.96;68292.00;0.23;118.81;;;;;22.30;1.00;;;;;;2576438;55;1352;-89
2021/07/22 02:54:10;424747.00;1.42;732.35;66418.00;0.22;115.57;;;;;21.80;1.00;;;;;;2576389;55;1947;-88
2021/07/22 02:56:37;308389.00;1.03;532.34;66590.00;0.22;115.87;;;;;21.80;1.00;;;;;;2576454;55;1031;-88
2021/07/22 02:59:04;336359.00;1.12;580.42;71816.00;0.24;124.90;;;;;21.90;1.00;;;;;;2578574;55;1024;-88
2021/07/22 03:01:31;383610.00;1.28;661.63;64321.00;0.21;111.95;;;;;22.00;1.00;;;;;;2576291;55;1256;-89
2021/07/22 03:03:59;629862.00;2.10;1085.81;164658.00;0.55;285.06;;;;;21.80;1.00;;;;;;2576329;55;1140;-89
2021/07/22 03:06:26;355719.00;1.19;613.69;97299.00;0.32;168.91;;;;;21.50;1.00;;;;;;2576426;55;1086;-89
2021/07/22 03:08:53;636930.00;2.12;1098.03;109879.00;0.37;190.62;;;;;21.70;1.00;;;;;;2576343;55;1132;-88
2021/07/22 03:11:20;632795.00;2.11;1090.88;176436.00;0.59;305.35;;;;;21.80;1.00;;;;;;2576390;55;1359;-89
2021/07/22 03:13:47;546885.00;1.82;942.59;73504.00;0.25;127.81;;;;;21.50;1.00;;;;;;2578020;55;1959;-88
2021/07/22 03:16:14;593169.00;1.98;1022.43;69589.00;0.23;121.05;;;;;21.50;1.00;;;;;;2576293;55;1053;-89
2021/07/22 03:18:41;415820.00;1.39;717.00;61646.00;0.21;107.32;;;;;21.30;1.00;;;;;;2576380;55;1090;-89
2021/07/22 03:21:11;356701.00;1.19;615.38;72263.00;0.24;125.67;;;;;21.30;1.00;;;;;;2576317;55;1393;-88
2021/07/22 03:23:37;264569.00;0.88;457.01;0.00;0.00;0.62;;;;;21.10;1.00;;;;;;2578529;55;1660;-88
2021/07/22 03:26:05;278369.00;0.93;480.73;70666.00;0.24;122.91;;;;;21.10;1.00;;;;;;2576368;55;1074;-88
2021/07/22 03:28:31;374829.00;1.25;646.54;50831.00;0.17;88.62;;;;;21.30;1.00;;;;;;2577883;55;1175;-87
2021/07/22 03:30:58;481719.00;1.61;830.36;90893.00;0.30;157.85;;;;;21.50;1.00;;;;;;2575823;55;1345;-88
2021/07/22 03:33:25;454689.00;1.52;783.85;66869.00;0.22;116.35;;;;;21.60;1.00;;;;;;2576263;55;1902;-89
2021/07/22 03:35:52;375625.00;1.25;647.91;66815.00;0.22;116.26;;;;;21.70;1.00;;;;;;2576280;55;1040;-89
2021/07/22 03:38:20;356037.00;1.19;614.24;60301.00;0.20;105.00;;;;;21.90;1.00;;;;;;2576395;55;1126;-89
2021/07/22 03:40:47;343825.00;1.15;593.25;71043.00;0.24;123.56;;;;;22.00;1.00;;;;;;2576343;55;1261;-88
2021/07/22 03:43:14;390106.00;1.30;672.80;78753.00;0.26;136.88;;;;;22.10;1.00;;;;;;2578473;55;1032;-90
2021/07/22 03:45:41;430145.00;1.43;741.63;70812.00;0.24;123.16;;;;;22.20;1.00;;;;;;2578569;55;1173;-89
2021/07/22 03:48:08;423895.00;1.41;730.89;51230.00;0.17;89.31;;;;;22.20;1.00;;;;;;2576361;55;1094;-89
2021/07/22 03:50:35;366710.00;1.22;632.58;73181.00;0.24;127.26;;;;;22.20;1.00;;;;;;2578449;55;1237;-89
2021/07/22 03:53:02;526064.00;1.75;906.71;69480.00;0.23;120.86;;;;;22.20;1.00;;;;;;2578500;55;1965;-90
2021/07/22 03:55:30;490552.00;1.64;845.56;65209.00;0.22;113.48;;;;;22.10;1.00;;;;;;2578550;55;942;-89
2021/07/22 03:57:57;586296.00;1.95;1010.56;155863.00;0.52;269.91;;;;;22.20;1.00;;;;;;2578513;55;1182;-88
2021/07/22 04:00:25;392652.00;1.31;677.17;72777.00;0.24;126.56;;;;;22.20;1.00;;;;;;2576117;55;1407;-89
2021/07/22 04:03:01;359074.00;1.20;619.46;75812.00;0.25;131.80;;;;;22.20;1.00;;;;;;2576365;55;1012;-89
2021/07/22 04:05:29;363361.00;1.21;626.83;55480.00;0.18;96.66;;;;;22.20;1.00;;;;;;2578565;55;1086;-89
2021/07/22 04:07:57;383021.00;1.28;660.62;75648.00;0.25;131.52;;;;;22.10;1.00;;;;;;2578473;55;1026;-90
2021/07/22 04:10:24;321182.00;1.07;554.33;0.00;0.00;0.62;;;;;21.50;1.00;;;;;;2578491;55;1374;-90
2021/07/22 04:12:57;266328.00;0.89;460.03;0.00;0.00;0.62;;;;;21.40;1.00;;;;;;2576223;55;1952;-90
2021/07/22 04:15:25;152275.00;0.51;263.73;0.00;0.00;0.62;;;;;21.50;1.00;;;;;;2578465;55;1701;-90
2021/07/22 04:17:52;368714.00;1.23;636.03;0.00;0.00;0.62;;;;;21.30;1.00;;;;;;2578476;55;975;-88
2021/07/22 04:20:20;262230.00;0.87;452.98;0.00;0.00;0.62;;;;;21.10;1.00;;;;;;2576231;55;1369;-89
2021/07/22 04:22:47;221188.00;0.74;382.39;0.00;0.00;0.62;;;;;21.00;1.00;;;;;;2578453;55;1016;-88
2021/07/22 04:25:14;309206.00;1.03;533.74;0.00;0.00;0.62;;;;;21.10;1.00;;;;;;2578558;55;977;-89
2021/07/22 04:27:42;252250.00;0.84;435.82;0.00;0.00;0.62;;;;;21.20;1.00;;;;;;2578399;55;1880;-89
2021/07/22 04:30:11;378571.00;1.26;652.97;21743.00;0.07;38.29;;;;;21.30;1.00;;;;;;2576282;55;1333;-91
2021/07/22 04:32:38;240487.00;0.80;415.59;0.00;0.00;0.62;;;;;21.40;1.00;;;;;;2578577;55;933;-89
2021/07/22 04:35:08;214585.00;0.72;371.03;0.00;0.00;0.62;;;;;21.70;1.00;;;;;;2578711;55;1964;-90
2021/07/22 04:37:36;225030.00;0.75;389.00;0.00;0.00;0.62;;;;;21.90;1.00;;;;;;2576558;55;998;-90
2021/07/22 04:40:05;218745.00;0.73;378.18;0.00;0.00;0.62;;;;;21.70;1.00;;;;;;2576511;55;1276;-89
2021/07/22 04:42:32;319590.00;1.07;551.59;0.00;0.00;0.62;;;;;22.00;1.00;;;;;;2578693;55;891;-90
2021/07/22 04:44:59;177883.00;0.59;307.84;0.00;0.00;0.62;;;;;22.10;1.00;;;;;;2576519;55;1082;-88
2021/07/22 04:47:28;108687.00;0.36;188.56;0.00;0.00;0.62;;;;;22.40;1.00;;;;;;2576133;55;1067;-89
2021/07/22 04:49:55;740916.00;2.47;1278.27;145092.00;0.48;251.35;;;;;22.50;1.00;;;;;;2576474;55;1421;-89
2021/07/22 04:52:22;535975.00;1.79;923.79;7150.00;0.02;13.01;;;;;22.40;1.00;;;;;;2576510;55;1062;-89
2021/07/22 04:54:48;456052.00;1.52;786.19;0.00;0.00;0.62;;;;;22.50;1.00;;;;;;2578620;55;1965;-89
2021/07/22 04:57:15;208015.00;0.69;359.72;0.00;0.00;0.62;;;;;22.80;1.00;;;;;;2578498;55;1104;-87
2021/07/22 04:59:42;690302.00;2.30;1190.43;68296.00;0.23;118.82;;;;;22.50;1.00;;;;;;2578349;55;1398;-89
2021/07/22 05:02:09;163367.00;0.54;282.84;0.00;0.00;0.62;;;;;22.70;1.00;;;;;;2576093;55;1114;-88
2021/07/22 05:04:37;291625.00;0.97;503.52;26847.00;0.09;47.13;;;;;23.00;1.00;;;;;;2576414;55;1106;-89
2021/07/22 05:07:05;579977.00;1.93;999.66;119767.00;0.40;207.68;;;;;22.90;1.00;;;;;;2576513;55;1008;-88
2021/07/22 05:09:32;158565.00;0.53;274.57;0.00;0.00;0.62;;;;;22.90;1.00;;;;;;2576504;55;1059;-89
2021/07/22 05:11:59;165126.00;0.55;285.87;0.00;0.00;0.62;;;;;22.80;1.00;;;;;;2576465;55;1382;-89
2021/07/22 05:16:54;235142.00;0.78;406.39;0.00;0.00;0.62;;;;;22.80;1.00;;;;;;2569761;56;603;-86
2021/07/22 05:19:21;88842.00;0.30;154.31;0.00;0.00;0.62;;;;;23.00;1.00;;;;;;2569825;56;1068;-86
2021/07/22 05:21:49;400938.00;1.34;691.42;125915.00;0.42;218.28;;;;;22.90;1.00;;;;;;2569645;56;1112;-87
2021/07/22 05:24:16;141191.00;0.47;244.62;0.00;0.00;0.62;;;;;22.60;1.00;;;;;;2571450;56;1261;-87
2021/07/22 05:26:43;137437.00;0.46;238.15;0.00;0.00;0.62;;;;;22.60;1.00;;;;;;2572167;56;1159;-87
2021/07/22 05:29:11;303485.00;1.01;523.91;0.00;0.00;0.62;;;;;22.80;1.00;;;;;;2569851;56;1187;-87
2021/07/22 05:31:40;311915.00;1.04;538.40;0.00;0.00;0.62;;;;;22.60;1.00;;;;;;2568250;56;1063;-86
2021/07/22 05:34:07;292197.00;0.97;504.51;0.00;0.00;0.62;;;;;22.60;1.00;;;;;;2571374;56;1963;-87
2021/07/22 05:36:35;354703.00;1.18;611.94;0.00;0.00;0.62;;;;;22.70;1.00;;;;;;2556162;56;1085;-87
2021/07/22 05:39:03;269201.00;0.90;464.97;0.00;0.00;0.62;;;;;22.70;1.00;;;;;;2553801;56;1089;-87
2021/07/22 05:41:31;176014.00;0.59;304.63;16919.00;0.06;29.93;;;;;23.00;1.00;;;;;;2555343;56;1097;-87
2021/07/22 05:43:58;171612.00;0.57;297.04;0.00;0.00;0.62;;;;;22.90;1.00;;;;;;2551296;56;1305;-87
2021/07/22 05:46:24;65659.00;0.22;114.26;0.00;0.00;0.62;;;;;23.30;1.00;;;;;;2553879;56;1065;-87
2021/07/22 05:48:51;98757.00;0.33;171.43;0.00;0.00;0.62;;;;;24.20;1.00;;;;;;2553816;56;1109;-85
2021/07/22 05:51:18;254450.00;0.85;439.60;0.00;0.00;0.62;;;;;25.60;1.00;;;;;;2553954;56;1189;-85
2021/07/22 05:53:45;83183.00;0.28;144.54;0.00;0.00;0.62;;;;;25.80;1.00;;;;;;2549401;56;1905;-85
2021/07/22 05:56:17;129343.00;0.43;224.20;0.00;0.00;0.62;;;;;26.70;1.00;;;;;;2570473;56;1096;-85
2021/07/22 05:58:44;56111.00;0.19;97.75;0.00;0.00;0.62;;;;;27.40;1.00;;;;;;2572599;56;1262;-87
2021/07/22 06:01:11;142796.00;0.48;247.39;0.00;0.00;0.62;;;;;27.90;1.00;;;;;;2570095;56;1092;-86
2021/07/22 06:03:38;199164.00;0.66;344.48;0.00;0.00;0.62;;;;;28.70;1.00;;;;;;2569899;56;1447;-88
2021/07/22 06:06:06;77347.00;0.26;134.45;0.00;0.00;0.62;;;;;29.80;1.00;;;;;;2572211;56;1143;-88
2021/07/22 06:08:34;207260.00;0.69;358.42;37057.00;0.12;64.80;;;;;30.00;1.00;;;;;;2572230;56;1053;-88
2021/07/22 06:11:04;103699.00;0.35;179.96;0.00;0.00;0.62;;;;;30.00;1.00;;;;;;2558920;56;1184;-88
2021/07/22 06:13:33;3584.00;0.01;6.83;0.00;0.00;0.62;;;;;30.50;1.00;;;;;;2570270;56;1983;-88
2021/07/22 06:16:01;111667.00;0.37;193.71;0.00;0.00;0.62;;;;;31.70;1.00;;;;;;2572480;56;1117;-88
2021/07/22 06:18:28;63981.00;0.21;111.36;0.00;0.00;0.62;;;;;31.90;1.00;;;;;;2574416;56;1057;-88
2021/07/22 06:20:55;74839.00;0.25;130.12;0.00;0.00;0.62;;;;;31.70;1.00;;;;;;2574772;56;1069;-88
2021/07/22 06:23:23;247404.00;0.82;427.49;57981.00;0.19;100.99;;;;;31.70;1.00;;;;;;2576963;55;1669;-88
2021/07/22 06:25:50;161719.00;0.54;280.00;0.00;0.00;0.62;;;;;32.00;1.00;;;;;;2576658;55;1085;-87
2021/07/22 06:28:16;0.00;0.00;0.62;0.00;0.00;0.62;;;;;31.80;1.00;;;;;;2574122;56;1165;-88
2021/07/22 06:30:45;184055.00;0.61;318.47;56317.00;0.19;98.11;;;;;31.60;1.00;;;;;;2574921;56;1101;-87
2021/07/22 06:33:12;171911.00;0.57;297.56;0.00;0.00;0.62;;;;;32.50;1.00;;;;;;2576688;55;1198;-86
2021/07/22 06:35:40;88219.00;0.29;153.23;0.00;0.00;0.62;;;;;32.70;1.00;;;;;;2574920;56;1902;-87
2021/07/22 06:38:08;114949.00;0.38;199.37;0.00;0.00;0.62;;;;;33.60;1.00;;;;;;2574715;56;1125;-87
2021/07/22 06:40:36;91743.00;0.31;159.32;0.00;0.00;0.62;;;;;33.90;1.00;;;;;;2574924;56;1076;-86
2021/07/22 06:43:03;107632.00;0.36;186.74;0.00;0.00;0.62;;;;;33.30;1.00;;;;;;2574636;56;1335;-87
2021/07/22 06:45:30;201766.00;0.67;348.96;0.00;0.00;0.62;;;;;32.80;1.00;;;;;;2574603;56;1125;-87
2021/07/22 06:47:58;175948.00;0.59;304.51;0.00;0.00;0.62;;;;;32.90;1.00;;;;;;2574005;56;1196;-85
2021/07/22 06:50:25;18230.00;0.06;32.20;0.00;0.00;0.62;;;;;34.10;1.00;;;;;;2574662;56;1221;-85
2021/07/22 06:52:52;127633.00;0.43;221.25;0.00;0.00;0.62;;;;;34.40;1.00;;;;;;2576653;55;1120;-85
2021/07/22 06:55:18;159905.00;0.53;276.88;0.00;0.00;0.62;;;;;34.30;1.00;;;;;;2575560;55;1964;-85
2021/07/22 06:57:48;78865.00;0.26;137.08;0.00;0.00;0.62;;;;;33.70;1.00;;;;;;2565037;55;1128;-86
2021/07/22 07:00:15;86604.00;0.29;150.44;0.00;0.00;0.62;;;;;34.40;1.00;;;;;;2575830;56;1161;-86
2021/07/22 07:02:42;97164.00;0.32;168.68;0.00;0.00;0.62;;;;;35.40;1.00;;;;;;2575899;56;1192;-85
2021/07/22 07:05:11;75378.00;0.25;131.05;0.00;0.00;0.62;;;;;35.20;1.00;;;;;;2575128;56;1354;-85
2021/07/22 07:07:38;13058.00;0.04;23.25;0.00;0.00;0.62;;;;;34.70;1.00;;;;;;2574938;56;1160;-85
2021/07/22 07:10:06;125816.00;0.42;218.11;0.00;0.00;0.62;;;;;34.50;1.00;;;;;;2577281;55;1140;-86
2021/07/22 07:12:33;0.00;0.00;0.62;0.00;0.00;0.62;;;;;34.40;1.00;;;;;;2577608;55;1127;-84
2021/07/22 07:15:00;161916.00;0.54;280.34;0.00;0.00;0.62;;;;;34.00;1.00;;;;;;2574889;56;1948;-85
2021/07/22 07:17:27;85282.00;0.28;148.16;0.00;0.00;0.62;;;;;34.40;1.00;;;;;;2577423;55;1037;-85
2021/07/22 07:19:54;300586.00;1.00;518.93;75814.00;0.25;131.81;;;;;34.60;1.00;;;;;;2575081;56;1460;-86
2021/07/22 07:22:22;254506.00;0.85;439.70;78959.00;0.26;137.24;;;;;35.80;1.00;;;;;;2574224;56;1241;-86
2021/07/22 07:24:49;88491.00;0.29;153.70;0.00;0.00;0.62;;;;;34.60;1.00;;;;;;2574927;56;1284;-86
2021/07/22 07:27:16;14852.00;0.05;26.35;0.00;0.00;0.62;;;;;34.70;1.00;;;;;;2564140;55;1216;-86
2021/07/22 07:29:43;135211.00;0.45;234.31;0.00;0.00;0.62;;;;;34.80;1.00;;;;;;2575198;56;1148;-86
2021/07/22 07:32:10;235200.00;0.78;406.49;35598.00;0.12;62.27;;;;;35.10;1.00;;;;;;2575156;55;1120;-86
2021/07/22 07:34:37;91855.00;0.31;159.51;0.00;0.00;0.62;;;;;34.70;1.00;;;;;;2564080;55;1906;-85
2021/07/22 07:37:04;97876.00;0.33;169.91;0.00;0.00;0.62;;;;;35.20;1.00;;;;;;2572760;55;1163;-87
2021/07/22 07:39:34;171026.00;0.57;296.03;0.00;0.00;0.62;;;;;36.20;1.00;;;;;;2575581;56;1076;-87
2021/07/22 07:42:01;0.00;0.00;0.62;0.00;0.00;0.62;;;;;35.80;1.00;;;;;;2577531;55;1116;-86
2021/07/22 07:44:28;100588.00;0.34;174.59;0.00;0.00;0.62;;;;;35.40;1.00;;;;;;2575976;55;1348;-87
2021/07/22 07:46:55;121498.00;0.40;210.67;0.00;0.00;0.62;;;;;35.20;1.00;;;;;;2576375;55;1089;-87
2021/07/22 07:49:22;118332.00;0.39;205.21;0.00;0.00;0.62;;;;;35.50;1.00;;;;;;2568967;55;970;-87
2021/07/22 07:51:49;78702.00;0.26;136.80;0.00;0.00;0.62;;;;;35.40;1.00;;;;;;2577576;55;1171;-87
2021/07/22 07:54:20;274097.00;0.91;473.39;61680.00;0.21;107.38;;;;;35.50;1.00;;;;;;2564318;55;1897;-86
2021/07/22 07:56:49;166146.00;0.55;287.63;46111.00;0.15;80.46;;;;;36.10;1.00;;;;;;2575543;55;1168;-87
2021/07/22 07:59:16;70282.00;0.23;122.25;0.00;0.00;0.62;;;;;35.80;1.00;;;;;;2577899;55;1127;-86
2021/07/22 08:01:43;80077.00;0.27;139.17;0.00;0.00;0.62;;;;;34.90;1.00;;;;;;2577284;55;1192;-86
2021/07/22 08:04:10;9825.00;0.03;17.65;0.00;0.00;0.62;;;;;35.20;1.00;;;;;;2574842;55;1321;-87
2021/07/22 08:06:37;0.00;0.00;0.62;0.00;0.00;0.62;;;;;34.70;1.00;;;;;;2575187;55;1102;-87
2021/07/22 08:09:04;0.00;0.00;0.62;0.00;0.00;0.62;;;;;34.60;1.00;;;;;;2575167;56;1176;-87
2021/07/22 08:11:31;0.00;0.00;0.62;0.00;0.00;0.62;;;;;35.60;1.00;;;;;;2574706;55;1110;-88
2021/07/22 08:13:59;343232.00;1.14;592.23;47702.00;0.16;83.21;;;;;36.40;1.00;;;;;;2564232;55;1414;-87
2021/07/22 08:16:26;75546.00;0.25;131.34;0.00;0.00;0.62;;;;;35.90;1.00;;;;;;2564208;55;1913;-87
2021/07/22 08:18:54;428818.00;1.43;739.35;170616.00;0.57;295.33;;;;;35.80;1.00;;;;;;2576228;55;1128;-89
2021/07/22 08:21:20;141571.00;0.47;245.28;39419.00;0.13;68.88;;;;;35.70;1.00;;;;;;2576350;55;1057;-87
2021/07/22 08:23:48;296683.00;0.99;512.22;0.00;0.00;0.62;;;;;36.40;1.00;;;;;;2578603;55;1224;-87
2021/07/22 08:26:15;84710.00;0.28;147.17;0.00;0.00;0.62;;;;;36.00;1.00;;;;;;2565295;55;1054;-88
2021/07/22 08:28:42;141650.00;0.47;245.42;0.00;0.00;0.62;;;;;35.60;1.00;;;;;;2564720;55;1074;-88
2021/07/22 08:31:11;176001.00;0.59;304.60;0.00;0.00;0.62;;;;;35.40;1.00;;;;;;2578014;55;1105;-87
2021/07/22 08:33:38;21503.00;0.07;37.87;0.00;0.00;0.62;;;;;35.70;1.00;;;;;;2577807;55;1312;-87
2021/07/22 08:36:05;47131.00;0.16;82.22;0.00;0.00;0.62;;;;;35.60;1.00;;;;;;2572708;55;1963;-87
2021/07/22 08:38:32;10635.00;0.04;19.05;0.00;0.00;0.62;;;;;35.30;1.00;;;;;;2576019;55;1137;-88
2021/07/22 08:41:00;0.00;0.00;0.62;0.00;0.00;0.62;;;;;35.60;1.00;;;;;;2576536;55;942;-88
2021/07/22 08:43:28;11930.00;0.04;21.29;0.00;0.00;0.62;;;;;35.60;1.00;;;;;;2576620;55;1370;-88
2021/07/22 08:45:56;128231.00;0.43;222.28;0.00;0.00;0.62;;;;;35.10;1.00;;;;;;2578920;55;943;-86
2021/07/22 08:48:24;148389.00;0.49;257.03;0.00;0.00;0.62;;;;;35.30;1.00;;;;;;2562784;56;1074;-86
2021/07/22 08:50:51;93385.00;0.31;162.15;0.00;0.00;0.62;;;;;35.00;1.00;;;;;;2562904;56;1118;-87
2021/07/22 08:53:21;57822.00;0.19;100.71;0.00;0.00;0.62;;;;;35.20;1.00;;;;;;2558170;56;1423;-86
2021/07/22 08:55:49;103713.00;0.35;179.98;0.00;0.00;0.62;;;;;35.20;1.00;;;;;;2562544;56;1932;-87
2021/07/22 08:58:16;361755.00;1.21;624.07;71502.00;0.24;124.36;;;;;34.80;1.00;;;;;;2562899;56;943;-86
2021/07/22 09:00:45;182129.00;0.61;315.16;0.00;0.00;0.62;;;;;35.10;1.00;;;;;;2562855;56;989;-87
2021/07/22 09:03:13;352971.00;1.18;608.97;40716.00;0.14;71.13;;;;;34.80;1.00;;;;;;2560505;56;1395;-88
2021/07/22 09:05:42;130839.00;0.44;226.78;0.00;0.00;0.62;;;;;34.90;1.00;;;;;;2562647;56;1049;-86
2021/07/22 09:08:09;17925.00;0.06;31.68;0.00;0.00;0.62;;;;;34.50;1.00;;;;;;2577996;55;1111;-87
2021/07/22 09:10:36;50210.00;0.17;87.55;0.00;0.00;0.62;;;;;33.90;1.00;;;;;;2578359;55;1083;-88
2021/07/22 09:13:03;55319.00;0.18;96.38;0.00;0.00;0.62;;;;;33.70;1.00;;;;;;2564675;55;1370;-87
2021/07/22 09:15:33;44002.00;0.15;76.81;0.00;0.00;0.62;;;;;33.90;1.00;;;;;;2569370;55;1964;-87
2021/07/22 09:18:19;0.00;0.00;0.62;0.00;0.00;0.62;;;;;34.50;1.00;;;;;;2564952;55;1223;-90
2021/07/22 09:20:48;18846.00;0.06;33.27;0.00;0.00;0.62;;;;;33.70;1.00;;;;;;2578773;55;1136;-88
2021/07/22 09:23:20;156237.00;0.52;270.56;50190.00;0.17;87.51;;;;;33.50;1.00;;;;;;2575234;55;1575;-88
2021/07/22 09:25:48;449755.00;1.50;775.36;24338.00;0.08;42.78;;;;;33.70;1.00;;;;;;2578641;55;1044;-88
2021/07/22 09:28:16;411090.00;1.37;708.87;0.00;0.00;0.62;;;;;33.50;1.00;;;;;;2576382;56;1136;-89
2021/07/22 09:30:57;411329.00;1.37;709.28;0.00;0.00;0.62;;;;;32.90;1.00;;;;;;2578008;55;1091;-89
2021/07/22 09:33:35;353215.00;1.18;609.39;0.00;0.00;0.62;;;;;31.70;1.00;;;;;;2565073;55;1297;-90
2021/07/22 09:36:04;281511.00;0.94;486.14;16787.00;0.06;29.71;;;;;31.60;1.00;;;;;;2578471;55;1941;-87
2021/07/22 09:38:32;557768.00;1.86;961.35;0.00;0.00;0.62;;;;;30.90;1.00;;;;;;2562435;56;961;-88
2021/07/22 09:40:59;995873.00;3.32;1725.16;7489.00;0.02;13.60;;;;;30.30;1.00;;;;;;2559706;56;985;-91
2021/07/22 09:43:36;530846.00;1.77;914.95;6243.00;0.02;11.44;;;;;30.30;1.00;;;;;;2552235;56;1391;-90
2021/07/22 09:46:04;877414.00;2.92;1516.49;90831.00;0.30;157.74;;;;;30.50;1.00;;;;;;2552421;56;916;-87
2021/07/22 09:48:31;705454.00;2.35;1216.70;30792.00;0.10;53.95;;;;;30.10;1.00;;;;;;2549841;56;1074;-89
2021/07/22 09:50:58;102126.00;0.34;177.24;0.00;0.00;0.62;;;;;30.20;1.00;;;;;;2551856;56;1177;-87